sensor_id;sensor_type;location;lat;lon;timestamp;P1;durP1;ratioP1;P2;durP2;ratioP2
71080;SDS011;58740;50.672;18.690;2023-05-23T00:01:06;8.70;;;4.60;;
71080;SDS011;58740;50.672;18.690;2023-05-23T00:03:34;8.20;;;4.50;;
71080;SDS011;58740;50.672;18.690;2023-05-23T00:06:05;8.50;;;4.50;;
71080;SDS011;58740;50.672;18.690;2023-05-23T00:08:33;8.00;;;4.40;;
71080;SDS011;58740;50.672;18.690;2023-05-23T00:11:01;8.90;;;4.60;;
71080;SDS011;58740;50.672;18.690;2023-05-23T00:13:29;9.20;;;4.70;;
71080;SDS011;58740;50.672;18.690;2023-05-23T00:15:59;13.40;;;4.80;;
71080;SDS011;58740;50.672;18.690;2023-05-23T00:18:29;12.80;;;4.60;;
71080;SDS011;58740;50.672;18.690;2023-05-23T00:20:57;11.60;;;5.00;;
71080;SDS011;58740;50.672;18.690;2023-05-23T00:23:25;9.30;;;4.50;;
71080;SDS011;58740;50.672;18.690;2023-05-23T00:25:56;12.20;;;4.30;;
71080;SDS011;58740;50.672;18.690;2023-05-23T00:28:25;11.10;;;5.10;;
71080;SDS011;58740;50.672;18.690;2023-05-23T00:30:52;8.50;;;5.00;;
71080;SDS011;58740;50.672;18.690;2023-05-23T00:33:20;9.10;;;4.70;;
71080;SDS011;58740;50.672;18.690;2023-05-23T00:35:49;10.90;;;4.90;;
71080;SDS011;58740;50.672;18.690;2023-05-23T00:38:17;11.40;;;5.30;;
71080;SDS011;58740;50.672;18.690;2023-05-23T00:40:45;8.80;;;4.40;;
71080;SDS011;58740;50.672;18.690;2023-05-23T00:43:12;10.30;;;5.30;;
71080;SDS011;58740;50.672;18.690;2023-05-23T00:45:40;8.00;;;4.60;;
71080;SDS011;58740;50.672;18.690;2023-05-23T00:48:08;8.70;;;4.90;;
71080;SDS011;58740;50.672;18.690;2023-05-23T00:50:37;9.20;;;5.00;;
71080;SDS011;58740;50.672;18.690;2023-05-23T00:53:05;10.60;;;4.80;;
71080;SDS011;58740;50.672;18.690;2023-05-23T00:55:33;7.80;;;4.70;;
71080;SDS011;58740;50.672;18.690;2023-05-23T00:58:00;10.00;;;4.80;;
71080;SDS011;58740;50.672;18.690;2023-05-23T01:00:28;9.50;;;5.40;;
71080;SDS011;58740;50.672;18.690;2023-05-23T01:02:57;12.40;;;5.30;;
71080;SDS011;58740;50.672;18.690;2023-05-23T01:05:25;11.70;;;5.40;;
71080;SDS011;58740;50.672;18.690;2023-05-23T01:07:53;13.40;;;7.40;;
71080;SDS011;58740;50.672;18.690;2023-05-23T01:10:25;13.50;;;7.90;;
71080;SDS011;58740;50.672;18.690;2023-05-23T01:13:19;13.50;;;8.00;;
71080;SDS011;58740;50.672;18.690;2023-05-23T01:16:13;15.50;;;8.10;;
71080;SDS011;58740;50.672;18.690;2023-05-23T01:18:52;12.10;;;7.20;;
71080;SDS011;58740;50.672;18.690;2023-05-23T01:21:33;13.60;;;6.60;;
71080;SDS011;58740;50.672;18.690;2023-05-23T01:24:25;11.30;;;6.60;;
71080;SDS011;58740;50.672;18.690;2023-05-23T01:27:56;9.20;;;6.10;;
71080;SDS011;58740;50.672;18.690;2023-05-23T01:30:19;10.90;;;6.50;;
71080;SDS011;58740;50.672;18.690;2023-05-23T01:32:49;13.20;;;7.00;;
71080;SDS011;58740;50.672;18.690;2023-05-23T01:35:26;14.50;;;6.00;;
71080;SDS011;58740;50.672;18.690;2023-05-23T01:37:54;12.10;;;6.10;;
71080;SDS011;58740;50.672;18.690;2023-05-23T01:40:24;12.30;;;6.00;;
71080;SDS011;58740;50.672;18.690;2023-05-23T01:42:53;12.60;;;6.40;;
71080;SDS011;58740;50.672;18.690;2023-05-23T01:45:25;16.70;;;8.80;;
71080;SDS011;58740;50.672;18.690;2023-05-23T01:47:55;14.30;;;8.00;;
71080;SDS011;58740;50.672;18.690;2023-05-23T01:50:25;16.90;;;7.30;;
71080;SDS011;58740;50.672;18.690;2023-05-23T01:52:54;11.00;;;7.50;;
71080;SDS011;58740;50.672;18.690;2023-05-23T01:55:24;14.60;;;7.50;;
71080;SDS011;58740;50.672;18.690;2023-05-23T01:57:54;12.10;;;6.10;;
71080;SDS011;58740;50.672;18.690;2023-05-23T02:00:23;9.50;;;5.70;;
71080;SDS011;58740;50.672;18.690;2023-05-23T02:02:52;10.60;;;6.10;;
71080;SDS011;58740;50.672;18.690;2023-05-23T02:05:19;12.10;;;6.10;;
71080;SDS011;58740;50.672;18.690;2023-05-23T02:07:47;8.40;;;5.40;;
71080;SDS011;58740;50.672;18.690;2023-05-23T02:10:15;14.40;;;5.80;;
71080;SDS011;58740;50.672;18.690;2023-05-23T02:12:43;9.90;;;6.10;;
71080;SDS011;58740;50.672;18.690;2023-05-23T02:15:11;8.00;;;5.00;;
71080;SDS011;58740;50.672;18.690;2023-05-23T02:17:39;10.70;;;6.90;;
71080;SDS011;58740;50.672;18.690;2023-05-23T02:20:08;9.80;;;5.60;;
71080;SDS011;58740;50.672;18.690;2023-05-23T02:22:39;10.30;;;5.80;;
71080;SDS011;58740;50.672;18.690;2023-05-23T02:25:07;9.60;;;5.50;;
71080;SDS011;58740;50.672;18.690;2023-05-23T02:27:35;13.10;;;6.00;;
71080;SDS011;58740;50.672;18.690;2023-05-23T02:30:03;12.30;;;6.90;;
71080;SDS011;58740;50.672;18.690;2023-05-23T02:32:31;10.00;;;5.90;;
71080;SDS011;58740;50.672;18.690;2023-05-23T02:34:58;9.00;;;5.70;;
71080;SDS011;58740;50.672;18.690;2023-05-23T02:37:26;9.90;;;6.20;;
71080;SDS011;58740;50.672;18.690;2023-05-23T02:39:55;10.10;;;5.50;;
71080;SDS011;58740;50.672;18.690;2023-05-23T02:42:23;8.60;;;5.50;;
71080;SDS011;58740;50.672;18.690;2023-05-23T02:44:50;9.10;;;5.10;;
71080;SDS011;58740;50.672;18.690;2023-05-23T02:47:18;10.20;;;5.60;;
71080;SDS011;58740;50.672;18.690;2023-05-23T02:49:46;10.00;;;5.50;;
71080;SDS011;58740;50.672;18.690;2023-05-23T02:52:14;9.60;;;6.00;;
71080;SDS011;58740;50.672;18.690;2023-05-23T02:54:42;10.70;;;4.80;;
71080;SDS011;58740;50.672;18.690;2023-05-23T02:57:10;8.80;;;5.60;;
71080;SDS011;58740;50.672;18.690;2023-05-23T02:59:37;14.40;;;5.90;;
71080;SDS011;58740;50.672;18.690;2023-05-23T03:02:05;11.60;;;5.10;;
71080;SDS011;58740;50.672;18.690;2023-05-23T03:04:33;9.50;;;5.80;;
71080;SDS011;58740;50.672;18.690;2023-05-23T03:07:01;10.50;;;5.70;;
71080;SDS011;58740;50.672;18.690;2023-05-23T03:09:33;9.80;;;5.90;;
71080;SDS011;58740;50.672;18.690;2023-05-23T03:12:01;9.60;;;4.80;;
71080;SDS011;58740;50.672;18.690;2023-05-23T03:14:29;10.60;;;5.70;;
71080;SDS011;58740;50.672;18.690;2023-05-23T03:16:57;11.10;;;6.30;;
71080;SDS011;58740;50.672;18.690;2023-05-23T03:19:24;21.10;;;10.00;;
71080;SDS011;58740;50.672;18.690;2023-05-23T03:21:52;24.90;;;15.70;;
71080;SDS011;58740;50.672;18.690;2023-05-23T03:24:20;31.70;;;19.80;;
71080;SDS011;58740;50.672;18.690;2023-05-23T03:26:47;26.30;;;18.20;;
71080;SDS011;58740;50.672;18.690;2023-05-23T03:29:15;24.50;;;15.00;;
71080;SDS011;58740;50.672;18.690;2023-05-23T03:31:43;23.20;;;14.70;;
71080;SDS011;58740;50.672;18.690;2023-05-23T03:34:11;19.90;;;12.30;;
71080;SDS011;58740;50.672;18.690;2023-05-23T03:36:39;20.70;;;12.20;;
71080;SDS011;58740;50.672;18.690;2023-05-23T03:39:07;17.70;;;10.00;;
71080;SDS011;58740;50.672;18.690;2023-05-23T03:41:35;15.40;;;8.00;;
71080;SDS011;58740;50.672;18.690;2023-05-23T03:44:03;11.70;;;7.40;;
71080;SDS011;58740;50.672;18.690;2023-05-23T03:46:30;10.50;;;7.90;;
71080;SDS011;58740;50.672;18.690;2023-05-23T03:48:59;9.60;;;6.50;;
71080;SDS011;58740;50.672;18.690;2023-05-23T03:51:26;13.10;;;7.30;;
71080;SDS011;58740;50.672;18.690;2023-05-23T03:53:54;10.80;;;6.50;;
71080;SDS011;58740;50.672;18.690;2023-05-23T03:56:22;11.20;;;5.80;;
71080;SDS011;58740;50.672;18.690;2023-05-23T03:58:49;9.20;;;5.20;;
71080;SDS011;58740;50.672;18.690;2023-05-23T04:01:17;10.40;;;5.50;;
71080;SDS011;58740;50.672;18.690;2023-05-23T04:03:45;10.40;;;5.60;;
71080;SDS011;58740;50.672;18.690;2023-05-23T04:06:14;10.20;;;5.20;;
71080;SDS011;58740;50.672;18.690;2023-05-23T04:08:43;15.60;;;5.60;;
71080;SDS011;58740;50.672;18.690;2023-05-23T04:11:11;10.80;;;5.90;;
71080;SDS011;58740;50.672;18.690;2023-05-23T04:13:39;8.50;;;4.60;;
71080;SDS011;58740;50.672;18.690;2023-05-23T04:16:06;9.80;;;5.20;;
71080;SDS011;58740;50.672;18.690;2023-05-23T04:18:34;9.40;;;4.40;;
71080;SDS011;58740;50.672;18.690;2023-05-23T04:21:05;12.60;;;4.80;;
71080;SDS011;58740;50.672;18.690;2023-05-23T04:23:33;8.70;;;4.40;;
71080;SDS011;58740;50.672;18.690;2023-05-23T04:26:01;8.40;;;4.50;;
71080;SDS011;58740;50.672;18.690;2023-05-23T04:28:29;9.70;;;4.90;;
71080;SDS011;58740;50.672;18.690;2023-05-23T04:30:56;10.80;;;4.30;;
71080;SDS011;58740;50.672;18.690;2023-05-23T04:33:25;9.20;;;4.50;;
71080;SDS011;58740;50.672;18.690;2023-05-23T04:35:54;10.60;;;5.10;;
71080;SDS011;58740;50.672;18.690;2023-05-23T04:38:23;11.10;;;5.60;;
71080;SDS011;58740;50.672;18.690;2023-05-23T04:40:54;10.20;;;4.90;;
71080;SDS011;58740;50.672;18.690;2023-05-23T04:43:22;10.60;;;5.40;;
71080;SDS011;58740;50.672;18.690;2023-05-23T04:45:53;9.50;;;5.30;;
71080;SDS011;58740;50.672;18.690;2023-05-23T04:48:21;11.90;;;5.50;;
71080;SDS011;58740;50.672;18.690;2023-05-23T04:50:49;10.60;;;5.70;;
71080;SDS011;58740;50.672;18.690;2023-05-23T04:53:19;11.80;;;5.40;;
71080;SDS011;58740;50.672;18.690;2023-05-23T04:55:47;11.20;;;4.90;;
71080;SDS011;58740;50.672;18.690;2023-05-23T04:58:15;8.70;;;4.80;;
71080;SDS011;58740;50.672;18.690;2023-05-23T05:00:42;11.80;;;4.30;;
71080;SDS011;58740;50.672;18.690;2023-05-23T05:03:11;10.90;;;5.40;;
71080;SDS011;58740;50.672;18.690;2023-05-23T05:05:39;8.70;;;4.50;;
71080;SDS011;58740;50.672;18.690;2023-05-23T05:08:07;10.50;;;5.20;;
71080;SDS011;58740;50.672;18.690;2023-05-23T05:10:35;10.10;;;5.30;;
71080;SDS011;58740;50.672;18.690;2023-05-23T05:13:03;10.90;;;5.10;;
71080;SDS011;58740;50.672;18.690;2023-05-23T05:15:30;10.80;;;4.80;;
71080;SDS011;58740;50.672;18.690;2023-05-23T05:17:58;9.60;;;4.80;;
71080;SDS011;58740;50.672;18.690;2023-05-23T05:20:26;11.10;;;5.10;;
71080;SDS011;58740;50.672;18.690;2023-05-23T05:22:56;10.00;;;4.80;;
71080;SDS011;58740;50.672;18.690;2023-05-23T05:25:24;12.00;;;4.10;;
71080;SDS011;58740;50.672;18.690;2023-05-23T05:27:54;7.30;;;3.90;;
71080;SDS011;58740;50.672;18.690;2023-05-23T05:30:22;8.50;;;4.00;;
71080;SDS011;58740;50.672;18.690;2023-05-23T05:32:50;8.10;;;4.60;;
71080;SDS011;58740;50.672;18.690;2023-05-23T05:35:18;9.40;;;4.70;;
71080;SDS011;58740;50.672;18.690;2023-05-23T05:37:45;12.40;;;5.50;;
71080;SDS011;58740;50.672;18.690;2023-05-23T05:40:14;10.90;;;4.60;;
71080;SDS011;58740;50.672;18.690;2023-05-23T05:42:42;8.30;;;4.50;;
71080;SDS011;58740;50.672;18.690;2023-05-23T05:45:10;8.80;;;4.50;;
71080;SDS011;58740;50.672;18.690;2023-05-23T05:47:38;9.00;;;3.90;;
71080;SDS011;58740;50.672;18.690;2023-05-23T05:50:06;9.60;;;5.10;;
71080;SDS011;58740;50.672;18.690;2023-05-23T05:52:37;10.70;;;5.20;;
71080;SDS011;58740;50.672;18.690;2023-05-23T05:55:07;8.90;;;4.60;;
71080;SDS011;58740;50.672;18.690;2023-05-23T05:57:40;9.90;;;5.20;;
71080;SDS011;58740;50.672;18.690;2023-05-23T06:00:10;10.30;;;4.80;;
71080;SDS011;58740;50.672;18.690;2023-05-23T06:02:45;8.40;;;4.70;;
71080;SDS011;58740;50.672;18.690;2023-05-23T06:05:24;9.20;;;4.50;;
71080;SDS011;58740;50.672;18.690;2023-05-23T06:07:53;9.60;;;4.70;;
71080;SDS011;58740;50.672;18.690;2023-05-23T06:10:20;10.10;;;5.00;;
71080;SDS011;58740;50.672;18.690;2023-05-23T06:12:49;12.90;;;5.10;;
71080;SDS011;58740;50.672;18.690;2023-05-23T06:15:17;12.50;;;5.70;;
71080;SDS011;58740;50.672;18.690;2023-05-23T06:17:45;9.00;;;4.90;;
71080;SDS011;58740;50.672;18.690;2023-05-23T06:20:13;10.60;;;5.40;;
71080;SDS011;58740;50.672;18.690;2023-05-23T06:22:41;9.60;;;4.40;;
71080;SDS011;58740;50.672;18.690;2023-05-23T06:25:09;9.40;;;4.90;;
71080;SDS011;58740;50.672;18.690;2023-05-23T06:27:37;9.30;;;5.60;;
71080;SDS011;58740;50.672;18.690;2023-05-23T06:30:05;11.00;;;5.10;;
71080;SDS011;58740;50.672;18.690;2023-05-23T06:32:33;13.10;;;5.50;;
71080;SDS011;58740;50.672;18.690;2023-05-23T06:35:01;9.90;;;5.70;;
71080;SDS011;58740;50.672;18.690;2023-05-23T06:37:29;9.40;;;4.50;;
71080;SDS011;58740;50.672;18.690;2023-05-23T06:39:57;11.90;;;5.30;;
71080;SDS011;58740;50.672;18.690;2023-05-23T06:42:25;10.60;;;5.10;;
71080;SDS011;58740;50.672;18.690;2023-05-23T06:44:54;12.80;;;5.20;;
71080;SDS011;58740;50.672;18.690;2023-05-23T06:47:22;11.40;;;5.40;;
71080;SDS011;58740;50.672;18.690;2023-05-23T06:49:51;10.30;;;5.40;;
71080;SDS011;58740;50.672;18.690;2023-05-23T06:52:19;12.50;;;5.10;;
71080;SDS011;58740;50.672;18.690;2023-05-23T06:54:47;12.30;;;5.10;;
71080;SDS011;58740;50.672;18.690;2023-05-23T06:57:15;9.90;;;4.80;;
71080;SDS011;58740;50.672;18.690;2023-05-23T06:59:43;9.40;;;4.30;;
71080;SDS011;58740;50.672;18.690;2023-05-23T07:02:10;8.40;;;4.90;;
71080;SDS011;58740;50.672;18.690;2023-05-23T07:04:38;9.10;;;5.10;;
71080;SDS011;58740;50.672;18.690;2023-05-23T07:07:06;9.90;;;4.70;;
71080;SDS011;58740;50.672;18.690;2023-05-23T07:09:33;13.10;;;5.30;;
71080;SDS011;58740;50.672;18.690;2023-05-23T07:12:01;9.10;;;4.60;;
71080;SDS011;58740;50.672;18.690;2023-05-23T07:14:29;8.80;;;4.60;;
71080;SDS011;58740;50.672;18.690;2023-05-23T07:16:57;11.80;;;5.50;;
71080;SDS011;58740;50.672;18.690;2023-05-23T07:19:25;7.90;;;4.30;;
71080;SDS011;58740;50.672;18.690;2023-05-23T07:21:53;8.60;;;4.60;;
71080;SDS011;58740;50.672;18.690;2023-05-23T07:24:20;10.00;;;4.40;;
71080;SDS011;58740;50.672;18.690;2023-05-23T07:26:51;8.80;;;4.70;;
71080;SDS011;58740;50.672;18.690;2023-05-23T07:29:19;12.20;;;5.10;;
71080;SDS011;58740;50.672;18.690;2023-05-23T07:31:50;14.00;;;4.80;;
71080;SDS011;58740;50.672;18.690;2023-05-23T07:34:17;11.30;;;4.20;;
71080;SDS011;58740;50.672;18.690;2023-05-23T07:36:45;11.20;;;4.30;;
71080;SDS011;58740;50.672;18.690;2023-05-23T07:39:14;11.90;;;4.80;;
71080;SDS011;58740;50.672;18.690;2023-05-23T07:41:42;7.20;;;4.40;;
71080;SDS011;58740;50.672;18.690;2023-05-23T07:44:09;8.50;;;4.30;;
71080;SDS011;58740;50.672;18.690;2023-05-23T07:46:37;10.00;;;4.40;;
71080;SDS011;58740;50.672;18.690;2023-05-23T07:49:05;8.00;;;4.60;;
71080;SDS011;58740;50.672;18.690;2023-05-23T07:51:33;7.80;;;4.50;;
71080;SDS011;58740;50.672;18.690;2023-05-23T07:54:01;9.50;;;4.40;;
71080;SDS011;58740;50.672;18.690;2023-05-23T07:56:28;7.20;;;3.60;;
71080;SDS011;58740;50.672;18.690;2023-05-23T07:58:57;8.70;;;4.50;;
71080;SDS011;58740;50.672;18.690;2023-05-23T08:01:25;7.10;;;4.10;;
71080;SDS011;58740;50.672;18.690;2023-05-23T08:03:53;8.60;;;4.20;;
71080;SDS011;58740;50.672;18.690;2023-05-23T08:06:20;5.70;;;3.20;;
71080;SDS011;58740;50.672;18.690;2023-05-23T08:08:48;12.50;;;4.10;;
71080;SDS011;58740;50.672;18.690;2023-05-23T08:11:17;9.90;;;4.90;;
71080;SDS011;58740;50.672;18.690;2023-05-23T08:13:45;8.80;;;4.70;;
71080;SDS011;58740;50.672;18.690;2023-05-23T08:16:13;8.70;;;4.10;;
71080;SDS011;58740;50.672;18.690;2023-05-23T08:18:41;10.30;;;4.40;;
71080;SDS011;58740;50.672;18.690;2023-05-23T08:21:08;8.00;;;4.10;;
71080;SDS011;58740;50.672;18.690;2023-05-23T08:23:36;10.10;;;4.30;;
71080;SDS011;58740;50.672;18.690;2023-05-23T08:26:04;7.60;;;4.10;;
71080;SDS011;58740;50.672;18.690;2023-05-23T08:28:32;16.40;;;8.40;;
71080;SDS011;58740;50.672;18.690;2023-05-23T08:31:01;10.30;;;4.60;;
71080;SDS011;58740;50.672;18.690;2023-05-23T08:33:29;10.20;;;4.10;;
71080;SDS011;58740;50.672;18.690;2023-05-23T08:35:56;11.50;;;5.00;;
71080;SDS011;58740;50.672;18.690;2023-05-23T08:38:24;10.30;;;4.40;;
71080;SDS011;58740;50.672;18.690;2023-05-23T08:40:55;9.10;;;4.50;;
71080;SDS011;58740;50.672;18.690;2023-05-23T08:43:27;7.40;;;4.30;;
71080;SDS011;58740;50.672;18.690;2023-05-23T08:45:55;8.60;;;4.00;;
71080;SDS011;58740;50.672;18.690;2023-05-23T08:48:25;8.40;;;4.20;;
71080;SDS011;58740;50.672;18.690;2023-05-23T08:50:53;8.40;;;3.80;;
71080;SDS011;58740;50.672;18.690;2023-05-23T08:53:21;9.00;;;4.20;;
71080;SDS011;58740;50.672;18.690;2023-05-23T08:55:54;10.90;;;3.40;;
71080;SDS011;58740;50.672;18.690;2023-05-23T08:58:25;7.50;;;3.90;;
71080;SDS011;58740;50.672;18.690;2023-05-23T09:00:55;8.20;;;4.40;;
71080;SDS011;58740;50.672;18.690;2023-05-23T09:03:25;7.60;;;3.90;;
71080;SDS011;58740;50.672;18.690;2023-05-23T09:05:53;10.60;;;3.70;;
71080;SDS011;58740;50.672;18.690;2023-05-23T09:08:22;9.80;;;4.30;;
71080;SDS011;58740;50.672;18.690;2023-05-23T09:10:51;8.40;;;3.70;;
71080;SDS011;58740;50.672;18.690;2023-05-23T09:13:19;8.50;;;4.10;;
71080;SDS011;58740;50.672;18.690;2023-05-23T09:16:06;7.00;;;4.00;;
71080;SDS011;58740;50.672;18.690;2023-05-23T09:18:41;8.10;;;3.70;;
71080;SDS011;58740;50.672;18.690;2023-05-23T09:21:11;8.30;;;4.20;;
71080;SDS011;58740;50.672;18.690;2023-05-23T09:23:40;6.30;;;3.80;;
71080;SDS011;58740;50.672;18.690;2023-05-23T09:26:10;7.50;;;3.70;;
71080;SDS011;58740;50.672;18.690;2023-05-23T09:28:41;10.00;;;3.70;;
71080;SDS011;58740;50.672;18.690;2023-05-23T09:31:11;8.10;;;3.50;;
71080;SDS011;58740;50.672;18.690;2023-05-23T09:33:43;7.60;;;4.00;;
71080;SDS011;58740;50.672;18.690;2023-05-23T09:36:16;8.70;;;4.00;;
71080;SDS011;58740;50.672;18.690;2023-05-23T09:38:46;8.30;;;4.10;;
71080;SDS011;58740;50.672;18.690;2023-05-23T09:41:18;10.80;;;3.60;;
71080;SDS011;58740;50.672;18.690;2023-05-23T09:43:53;7.50;;;3.70;;
71080;SDS011;58740;50.672;18.690;2023-05-23T09:46:21;7.90;;;3.90;;
71080;SDS011;58740;50.672;18.690;2023-05-23T09:48:54;9.50;;;3.80;;
71080;SDS011;58740;50.672;18.690;2023-05-23T09:51:22;7.10;;;3.50;;
71080;SDS011;58740;50.672;18.690;2023-05-23T09:53:51;8.00;;;4.40;;
71080;SDS011;58740;50.672;18.690;2023-05-23T09:56:20;7.50;;;4.10;;
71080;SDS011;58740;50.672;18.690;2023-05-23T09:58:50;8.10;;;3.60;;
71080;SDS011;58740;50.672;18.690;2023-05-23T10:01:22;8.30;;;4.70;;
71080;SDS011;58740;50.672;18.690;2023-05-23T10:03:52;9.10;;;3.80;;
71080;SDS011;58740;50.672;18.690;2023-05-23T10:06:51;7.30;;;3.80;;
71080;SDS011;58740;50.672;18.690;2023-05-23T10:09:23;6.60;;;3.50;;
71080;SDS011;58740;50.672;18.690;2023-05-23T10:15:02;9.00;;;4.00;;
71080;SDS011;58740;50.672;18.690;2023-05-23T10:18:11;9.40;;;3.60;;
71080;SDS011;58740;50.672;18.690;2023-05-23T10:20:48;8.30;;;3.40;;
71080;SDS011;58740;50.672;18.690;2023-05-23T10:23:17;7.30;;;3.60;;
71080;SDS011;58740;50.672;18.690;2023-05-23T10:25:47;8.50;;;3.60;;
71080;SDS011;58740;50.672;18.690;2023-05-23T10:28:15;6.70;;;3.70;;
71080;SDS011;58740;50.672;18.690;2023-05-23T10:30:44;9.70;;;4.50;;
71080;SDS011;58740;50.672;18.690;2023-05-23T10:33:13;7.50;;;3.80;;
71080;SDS011;58740;50.672;18.690;2023-05-23T10:35:56;8.80;;;4.00;;
71080;SDS011;58740;50.672;18.690;2023-05-23T10:38:47;8.40;;;3.90;;
71080;SDS011;58740;50.672;18.690;2023-05-23T10:41:40;8.40;;;3.80;;
71080;SDS011;58740;50.672;18.690;2023-05-23T10:44:22;7.90;;;3.70;;
71080;SDS011;58740;50.672;18.690;2023-05-23T10:52:07;7.30;;;3.80;;
71080;SDS011;58740;50.672;18.690;2023-05-23T10:54:53;10.20;;;3.80;;
71080;SDS011;58740;50.672;18.690;2023-05-23T10:57:25;7.50;;;3.90;;
71080;SDS011;58740;50.672;18.690;2023-05-23T10:59:56;10.10;;;3.80;;
71080;SDS011;58740;50.672;18.690;2023-05-23T11:02:26;9.30;;;3.70;;
71080;SDS011;58740;50.672;18.690;2023-05-23T11:05:18;8.00;;;3.50;;
71080;SDS011;58740;50.672;18.690;2023-05-23T11:08:12;7.80;;;3.20;;
71080;SDS011;58740;50.672;18.690;2023-05-23T11:11:01;7.40;;;3.80;;
71080;SDS011;58740;50.672;18.690;2023-05-23T11:16:23;11.10;;;3.60;;
71080;SDS011;58740;50.672;18.690;2023-05-23T11:19:20;7.50;;;4.00;;
71080;SDS011;58740;50.672;18.690;2023-05-23T11:21:56;6.00;;;3.30;;
71080;SDS011;58740;50.672;18.690;2023-05-23T11:24:53;7.90;;;3.40;;
71080;SDS011;58740;50.672;18.690;2023-05-23T11:27:30;10.30;;;3.50;;
71080;SDS011;58740;50.672;18.690;2023-05-23T11:30:03;7.30;;;3.40;;
71080;SDS011;58740;50.672;18.690;2023-05-23T11:32:34;7.10;;;3.60;;
71080;SDS011;58740;50.672;18.690;2023-05-23T11:35:05;8.90;;;3.70;;
71080;SDS011;58740;50.672;18.690;2023-05-23T11:37:37;7.90;;;3.90;;
71080;SDS011;58740;50.672;18.690;2023-05-23T11:43:12;10.60;;;3.70;;
71080;SDS011;58740;50.672;18.690;2023-05-23T11:45:41;7.70;;;3.90;;
71080;SDS011;58740;50.672;18.690;2023-05-23T11:48:11;7.80;;;3.50;;
71080;SDS011;58740;50.672;18.690;2023-05-23T11:50:51;6.70;;;3.60;;
71080;SDS011;58740;50.672;18.690;2023-05-23T11:53:21;8.50;;;3.60;;
71080;SDS011;58740;50.672;18.690;2023-05-23T11:55:57;7.10;;;3.50;;
71080;SDS011;58740;50.672;18.690;2023-05-23T11:58:33;6.90;;;3.50;;
71080;SDS011;58740;50.672;18.690;2023-05-23T12:01:07;8.10;;;3.40;;
71080;SDS011;58740;50.672;18.690;2023-05-23T12:03:50;8.10;;;3.70;;
71080;SDS011;58740;50.672;18.690;2023-05-23T12:06:20;8.30;;;3.70;;
71080;SDS011;58740;50.672;18.690;2023-05-23T12:08:51;8.70;;;3.70;;
71080;SDS011;58740;50.672;18.690;2023-05-23T12:11:19;9.50;;;4.40;;
71080;SDS011;58740;50.672;18.690;2023-05-23T12:13:51;9.20;;;5.30;;
71080;SDS011;58740;50.672;18.690;2023-05-23T12:16:19;11.80;;;5.70;;
71080;SDS011;58740;50.672;18.690;2023-05-23T12:18:47;14.50;;;5.60;;
71080;SDS011;58740;50.672;18.690;2023-05-23T12:21:15;11.70;;;5.90;;
71080;SDS011;58740;50.672;18.690;2023-05-23T12:23:44;12.80;;;6.10;;
71080;SDS011;58740;50.672;18.690;2023-05-23T12:26:11;14.70;;;6.60;;
71080;SDS011;58740;50.672;18.690;2023-05-23T12:28:41;9.80;;;6.20;;
71080;SDS011;58740;50.672;18.690;2023-05-23T12:31:16;14.30;;;6.90;;
71080;SDS011;58740;50.672;18.690;2023-05-23T12:33:46;11.30;;;5.60;;
71080;SDS011;58740;50.672;18.690;2023-05-23T12:36:24;10.70;;;6.60;;
71080;SDS011;58740;50.672;18.690;2023-05-23T12:39:04;9.50;;;6.00;;
71080;SDS011;58740;50.672;18.690;2023-05-23T12:41:32;10.40;;;5.60;;
71080;SDS011;58740;50.672;18.690;2023-05-23T12:44:01;10.60;;;6.40;;
71080;SDS011;58740;50.672;18.690;2023-05-23T12:46:29;10.00;;;5.80;;
71080;SDS011;58740;50.672;18.690;2023-05-23T12:48:57;11.60;;;6.00;;
71080;SDS011;58740;50.672;18.690;2023-05-23T12:51:25;9.20;;;5.90;;
71080;SDS011;58740;50.672;18.690;2023-05-23T12:53:53;9.50;;;5.30;;
71080;SDS011;58740;50.672;18.690;2023-05-23T12:56:23;10.60;;;5.50;;
71080;SDS011;58740;50.672;18.690;2023-05-23T12:58:51;9.20;;;6.10;;
71080;SDS011;58740;50.672;18.690;2023-05-23T13:01:20;9.90;;;6.10;;
71080;SDS011;58740;50.672;18.690;2023-05-23T13:03:51;10.80;;;6.50;;
71080;SDS011;58740;50.672;18.690;2023-05-23T13:06:19;11.50;;;6.10;;
71080;SDS011;58740;50.672;18.690;2023-05-23T13:08:46;10.80;;;5.60;;
71080;SDS011;58740;50.672;18.690;2023-05-23T13:11:17;10.30;;;5.60;;
71080;SDS011;58740;50.672;18.690;2023-05-23T13:13:45;9.70;;;6.00;;
71080;SDS011;58740;50.672;18.690;2023-05-23T13:16:14;11.10;;;5.70;;
71080;SDS011;58740;50.672;18.690;2023-05-23T13:18:43;10.70;;;6.20;;
71080;SDS011;58740;50.672;18.690;2023-05-23T13:21:11;11.80;;;6.00;;
71080;SDS011;58740;50.672;18.690;2023-05-23T13:23:39;9.40;;;6.10;;
71080;SDS011;58740;50.672;18.690;2023-05-23T13:26:11;10.80;;;6.20;;
71080;SDS011;58740;50.672;18.690;2023-05-23T13:28:41;10.00;;;5.50;;
71080;SDS011;58740;50.672;18.690;2023-05-23T13:31:09;9.50;;;5.60;;
71080;SDS011;58740;50.672;18.690;2023-05-23T13:33:37;9.30;;;5.90;;
71080;SDS011;58740;50.672;18.690;2023-05-23T13:36:05;10.90;;;6.00;;
71080;SDS011;58740;50.672;18.690;2023-05-23T13:38:33;13.50;;;5.70;;
71080;SDS011;58740;50.672;18.690;2023-05-23T13:41:04;8.70;;;5.30;;
71080;SDS011;58740;50.672;18.690;2023-05-23T13:43:32;9.60;;;6.40;;
71080;SDS011;58740;50.672;18.690;2023-05-23T13:46:00;10.20;;;6.20;;
71080;SDS011;58740;50.672;18.690;2023-05-23T13:48:29;10.00;;;6.60;;
71080;SDS011;58740;50.672;18.690;2023-05-23T13:50:57;9.70;;;6.40;;
71080;SDS011;58740;50.672;18.690;2023-05-23T13:53:25;8.40;;;5.40;;
71080;SDS011;58740;50.672;18.690;2023-05-23T13:55:54;10.10;;;5.70;;
71080;SDS011;58740;50.672;18.690;2023-05-23T13:58:21;11.60;;;5.90;;
71080;SDS011;58740;50.672;18.690;2023-05-23T14:00:49;9.50;;;5.70;;
71080;SDS011;58740;50.672;18.690;2023-05-23T14:03:17;8.00;;;5.50;;
71080;SDS011;58740;50.672;18.690;2023-05-23T14:05:46;8.80;;;5.60;;
71080;SDS011;58740;50.672;18.690;2023-05-23T14:08:14;9.10;;;5.20;;
71080;SDS011;58740;50.672;18.690;2023-05-23T14:10:42;11.20;;;5.10;;
71080;SDS011;58740;50.672;18.690;2023-05-23T14:13:10;8.70;;;5.60;;
71080;SDS011;58740;50.672;18.690;2023-05-23T14:15:38;11.50;;;5.40;;
71080;SDS011;58740;50.672;18.690;2023-05-23T14:18:09;9.70;;;5.40;;
71080;SDS011;58740;50.672;18.690;2023-05-23T14:20:37;8.80;;;5.50;;
71080;SDS011;58740;50.672;18.690;2023-05-23T14:23:05;10.10;;;5.80;;
71080;SDS011;58740;50.672;18.690;2023-05-23T14:25:33;11.10;;;5.40;;
71080;SDS011;58740;50.672;18.690;2023-05-23T14:28:01;10.60;;;5.70;;
71080;SDS011;58740;50.672;18.690;2023-05-23T14:30:30;9.30;;;5.10;;
71080;SDS011;58740;50.672;18.690;2023-05-23T14:32:57;8.80;;;5.60;;
71080;SDS011;58740;50.672;18.690;2023-05-23T14:35:25;8.60;;;5.40;;
71080;SDS011;58740;50.672;18.690;2023-05-23T14:37:53;9.00;;;5.60;;
71080;SDS011;58740;50.672;18.690;2023-05-23T14:40:21;11.70;;;5.80;;
71080;SDS011;58740;50.672;18.690;2023-05-23T14:42:49;9.80;;;5.90;;
71080;SDS011;58740;50.672;18.690;2023-05-23T14:45:17;9.30;;;5.10;;
71080;SDS011;58740;50.672;18.690;2023-05-23T14:47:45;8.70;;;5.50;;
71080;SDS011;58740;50.672;18.690;2023-05-23T14:50:13;9.80;;;5.40;;
71080;SDS011;58740;50.672;18.690;2023-05-23T14:52:42;10.70;;;6.30;;
71080;SDS011;58740;50.672;18.690;2023-05-23T14:55:10;8.20;;;5.30;;
71080;SDS011;58740;50.672;18.690;2023-05-23T14:57:37;8.70;;;5.40;;
71080;SDS011;58740;50.672;18.690;2023-05-23T15:00:06;10.30;;;5.30;;